createdAt,value
2022-09-18T00:02:22.222Z,97448.25
2022-09-18T00:04:49.316Z,97449.86
2022-09-18T00:07:16.933Z,97452.83
2022-09-18T00:09:44.600Z,97451.39
2022-09-18T00:12:11.547Z,97451.38
2022-09-18T00:14:38.703Z,97453.03
2022-09-18T00:17:08.958Z,97450.77
2022-09-18T00:19:36.071Z,97448.83
2022-09-18T00:22:02.880Z,97450.79
2022-09-18T00:24:29.719Z,97448.75
2022-09-18T00:26:56.508Z,97450.59
2022-09-18T00:29:23.360Z,97453.27
2022-09-18T00:31:50.211Z,97454.91
2022-09-18T00:34:17.386Z,97449.04
2022-09-18T00:36:44.572Z,97452.20
2022-09-18T00:39:12.227Z,97453.13
2022-09-18T00:41:43.019Z,97450.19
2022-09-18T00:44:41.098Z,97451.83
2022-09-18T00:47:11.813Z,97451.47
2022-09-18T00:49:41.879Z,97449.23
2022-09-18T00:52:09.637Z,97450.71
2022-09-18T00:54:40.109Z,97454.16
2022-09-18T00:57:12.189Z,97451.58
2022-09-18T00:59:43.143Z,97446.61
2022-09-18T01:02:10.024Z,97445.79
2022-09-18T01:04:36.841Z,97448.73
2022-09-18T01:07:04.244Z,97447.11
2022-09-18T01:09:48.363Z,97446.26
2022-09-18T01:12:23.237Z,97446.77
2022-09-18T01:15:12.386Z,97444.65
2022-09-18T01:17:53.427Z,97452.94
2022-09-18T01:20:51.376Z,97451.54
2022-09-18T01:23:20.941Z,97448.23
2022-09-18T01:26:11.942Z,97445.35
2022-09-18T01:29:00.786Z,97447.73
2022-09-18T01:31:43.413Z,97451.02
2022-09-18T01:34:24.185Z,97450.09
2022-09-18T01:36:58.279Z,97448.70
2022-09-18T01:39:28.505Z,97451.20
2022-09-18T01:42:13.486Z,97451.04
2022-09-18T01:44:44.403Z,97452.42
2022-09-18T01:47:15.155Z,97452.48
2022-09-18T01:49:47.569Z,97453.11
2022-09-18T01:52:19.644Z,97452.07
2022-09-18T01:54:50.906Z,97455.33
2022-09-18T01:57:24.218Z,97453.90
2022-09-18T02:00:00.592Z,97458.00
2022-09-18T02:02:36.553Z,97459.89
2022-09-18T02:05:07.807Z,97457.10
2022-09-18T02:07:55.212Z,97461.29
2022-09-18T02:10:24.087Z,97461.63
2022-09-18T02:12:54.335Z,97463.67
2022-09-18T02:15:26.414Z,97465.81
2022-09-18T02:18:05.812Z,97466.58
2022-09-18T02:20:41.492Z,97466.23
2022-09-18T02:23:09.544Z,97465.19
2022-09-18T02:25:55.625Z,97464.79
2022-09-18T02:28:25.683Z,97465.65
2022-09-18T02:30:53.485Z,97469.68
2022-09-18T02:33:37.214Z,97469.35
2022-09-18T02:36:23.303Z,97472.17
2022-09-18T02:39:18.467Z,97472.42
2022-09-18T02:42:13.624Z,97473.69
2022-09-18T02:44:55.438Z,97472.18
2022-09-18T02:47:51.880Z,97470.05
2022-09-18T02:50:42.308Z,97470.98
2022-09-18T02:53:17.035Z,97475.05
2022-09-18T02:55:50.073Z,97471.44
2022-09-18T02:58:26.738Z,97470.16
2022-09-18T03:01:01.979Z,97469.41
2022-09-18T03:03:32.413Z,97466.11
2022-09-18T03:06:05.520Z,97464.99
2022-09-18T03:08:34.688Z,97469.67
2022-09-18T03:11:03.973Z,97468.35
2022-09-18T03:13:30.990Z,97468.60
2022-09-18T03:15:57.861Z,97471.64
2022-09-18T03:18:26.125Z,97472.01
2022-09-18T03:20:55.536Z,97475.13
2022-09-18T03:23:23.917Z,97475.67
2022-09-18T03:25:56.902Z,97476.55
2022-09-18T03:28:23.726Z,97473.33
2022-09-18T03:30:52.195Z,97475.62
2022-09-18T03:33:19.586Z,97481.49
2022-09-18T03:35:46.345Z,97478.21
2022-09-18T03:38:13.597Z,97480.15
2022-09-18T03:40:47.317Z,97482.87
2022-09-18T03:43:14.991Z,97481.05
2022-09-18T03:45:43.422Z,97480.00
2022-09-18T03:48:11.247Z,97480.64
2022-09-18T03:50:38.251Z,97481.49
2022-09-18T03:53:08.611Z,97482.50
2022-09-18T03:55:41.440Z,97481.01
2022-09-18T03:58:23.757Z,97480.06
2022-09-18T04:01:06.996Z,97481.30
2022-09-18T04:03:40.131Z,97479.70
2022-09-18T04:06:22.584Z,97477.20
2022-09-18T04:09:04.822Z,97482.66
2022-09-18T04:11:37.490Z,97481.10
2022-09-18T04:14:04.966Z,97483.65
2022-09-18T04:16:32.653Z,97481.80
2022-09-18T04:18:59.466Z,97488.51
2022-09-18T04:21:27.095Z,97484.59
2022-09-18T04:23:55.684Z,97486.19
2022-09-18T04:26:22.469Z,97487.27
2022-09-18T04:28:53.377Z,97487.74
2022-09-18T04:31:20.243Z,97489.00
2022-09-18T04:33:47.471Z,97492.64
2022-09-18T04:36:14.450Z,97487.79
2022-09-18T04:38:41.203Z,97495.38
2022-09-18T04:41:08.623Z,97499.42
2022-09-18T04:43:35.587Z,97498.55
2022-09-18T04:46:02.491Z,97502.77
2022-09-18T04:48:29.901Z,97504.59
2022-09-18T04:50:59.360Z,97504.81
2022-09-18T04:53:28.240Z,97508.04
2022-09-18T04:55:55.855Z,97508.73
2022-09-18T04:58:22.628Z,97508.63
2022-09-18T05:00:53.409Z,97510.48
2022-09-18T05:03:22.616Z,97512.05
2022-09-18T05:05:51.225Z,97513.73
2022-09-18T05:08:18.354Z,97515.58
2022-09-18T05:10:45.164Z,97519.04
2022-09-18T05:13:12.577Z,97516.47
2022-09-18T05:15:43.437Z,97510.88
2022-09-18T05:18:12.191Z,97513.74
2022-09-18T05:20:39.434Z,97516.33
2022-09-18T05:23:07.364Z,97513.58
2022-09-18T05:25:35.901Z,97514.91
2022-09-18T05:28:03.735Z,97515.69
2022-09-18T05:30:37.568Z,97513.06
2022-09-18T05:33:07.328Z,97515.94
2022-09-18T05:35:36.449Z,97515.85
2022-09-18T05:38:04.319Z,97516.73
2022-09-18T05:40:34.603Z,97514.57
2022-09-18T05:43:03.314Z,97513.00
2022-09-18T05:45:32.168Z,97513.37
2022-09-18T05:48:01.978Z,97513.84
2022-09-18T05:50:31.114Z,97511.55
2022-09-18T05:52:59.788Z,97510.25
2022-09-18T05:55:31.778Z,97511.54
2022-09-18T05:58:01.528Z,97514.23
2022-09-18T06:00:30.832Z,97511.06
2022-09-18T06:03:05.288Z,97506.52
2022-09-18T06:05:34.453Z,97504.15
2022-09-18T06:08:03.781Z,97508.73
2022-09-18T06:10:30.672Z,97513.30
2022-09-18T06:13:06.105Z,97515.40
2022-09-18T06:15:34.447Z,97512.78
2022-09-18T06:18:01.734Z,97515.36
2022-09-18T06:20:28.842Z,97515.29
2022-09-18T06:23:00.562Z,97518.52
2022-09-18T06:25:36.551Z,97520.20
2022-09-18T06:28:06.674Z,97515.39
2022-09-18T06:30:35.656Z,97519.26
2022-09-18T06:33:05.507Z,97521.56
2022-09-18T06:35:33.792Z,97521.31
2022-09-18T06:38:04.123Z,97521.98
2022-09-18T06:40:38.188Z,97526.03
2022-09-18T06:43:21.484Z,97522.31
2022-09-18T06:45:54.049Z,97524.63
2022-09-18T06:48:24.957Z,97525.78
2022-09-18T06:50:53.749Z,97524.56
2022-09-18T06:53:21.846Z,97529.27
2022-09-18T06:55:52.332Z,97525.77
2022-09-18T06:58:21.214Z,97525.33
2022-09-18T07:00:51.565Z,97523.71
2022-09-18T07:03:23.059Z,97525.63
2022-09-18T07:06:10.383Z,97536.25
2022-09-18T07:08:47.177Z,97539.05
2022-09-18T07:11:19.568Z,97533.09
2022-09-18T07:13:47.340Z,97536.73
2022-09-18T07:16:14.525Z,97538.93
2022-09-18T07:18:41.462Z,97534.85
2022-09-18T07:21:10.673Z,97530.77
2022-09-18T07:23:38.987Z,97530.80
2022-09-18T07:26:05.973Z,97535.29
2022-09-18T07:28:34.021Z,97539.91
2022-09-18T07:31:06.947Z,97536.63
2022-09-18T07:33:35.776Z,97538.06
2022-09-18T07:36:04.973Z,97537.45
2022-09-18T07:38:34.445Z,97543.97
2022-09-18T07:41:02.748Z,97541.98
2022-09-18T07:43:31.823Z,97539.85
2022-09-18T07:45:59.533Z,97540.25
2022-09-18T07:48:28.472Z,97541.59
2022-09-18T07:50:58.643Z,97537.83
2022-09-18T07:53:26.551Z,97543.71
2022-09-18T07:55:55.985Z,97547.63
2022-09-18T07:58:24.492Z,97551.11
2022-09-18T08:01:02.620Z,97549.98
2022-09-18T08:03:30.549Z,97550.55
2022-09-18T08:06:13.087Z,97549.19
2022-09-18T08:08:55.071Z,97545.30
2022-09-18T08:11:36.273Z,97549.26
2022-09-18T08:14:16.479Z,97548.89
2022-09-18T08:16:58.480Z,97549.21
2022-09-18T08:19:37.319Z,97543.48
2022-09-18T08:22:19.883Z,97544.27
2022-09-18T08:24:51.095Z,97541.87
2022-09-18T08:27:19.330Z,97540.89
2022-09-18T08:29:47.903Z,97534.54
2022-09-18T08:32:16.371Z,97535.44
2022-09-18T08:34:43.579Z,97538.65
2022-09-18T08:37:13.640Z,97544.70
2022-09-18T08:40:12.147Z,97552.61
2022-09-18T08:43:00.597Z,97546.96
2022-09-18T08:45:44.543Z,97545.43
2022-09-18T08:48:31.340Z,97536.66
2022-09-18T08:51:18.321Z,97531.66
2022-09-18T08:53:51.197Z,97528.73
2022-09-18T08:56:23.952Z,97531.03
2022-09-18T08:59:27.511Z,97528.13
2022-09-18T09:02:15.006Z,97529.59
2022-09-18T09:04:43.403Z,97524.09
2022-09-18T09:07:43.243Z,97522.67
2022-09-18T09:10:27.381Z,97520.69
2022-09-18T09:13:33.152Z,97517.90
2022-09-18T09:16:13.999Z,97517.75
2022-09-18T09:18:52.199Z,97519.98
2022-09-18T09:21:25.346Z,97523.55
2022-09-18T09:24:05.073Z,97525.73
2022-09-18T09:26:55.907Z,97533.30
2022-09-18T09:30:01.201Z,97541.77
2022-09-18T09:32:44.624Z,97549.48
2022-09-18T09:35:32.505Z,97551.75
2022-09-18T09:38:19.194Z,97548.80
2022-09-18T09:40:52.625Z,97547.35
2022-09-18T09:43:35.476Z,97547.73
2022-09-18T09:46:18.061Z,97541.27
2022-09-18T09:49:16.715Z,97538.92
2022-09-18T09:51:53.150Z,97534.65
2022-09-18T09:54:20.705Z,97533.88
2022-09-18T09:56:53.195Z,97534.84
2022-09-18T09:59:52.123Z,97528.60
2022-09-18T10:02:55.967Z,97533.45
2022-09-18T10:05:43.674Z,97538.81
2022-09-18T10:08:21.603Z,97535.96
2022-09-18T10:10:57.073Z,97537.83
2022-09-18T10:13:56.427Z,97536.77
2022-09-18T10:16:29.710Z,97544.52
2022-09-18T10:19:00.101Z,97554.17
2022-09-18T10:21:34.931Z,97555.38
2022-09-18T10:24:36.187Z,97558.02
2022-09-18T10:27:11.608Z,97553.70
2022-09-18T10:29:40.575Z,97554.57
2022-09-18T10:32:13.214Z,97552.14
2022-09-18T10:35:01.148Z,97551.70
2022-09-18T10:37:28.628Z,97556.25
2022-09-18T10:40:15.548Z,97556.45
2022-09-18T10:42:43.076Z,97555.02
2022-09-18T10:45:23.280Z,97558.05
2022-09-18T10:48:05.121Z,97567.05
2022-09-18T10:50:54.981Z,97567.96
2022-09-18T10:53:30.770Z,97566.13
2022-09-18T10:56:14.196Z,97565.16
2022-09-18T10:58:42.978Z,97563.14
2022-09-18T11:01:26.265Z,97557.62
2022-09-18T11:04:06.400Z,97560.61
2022-09-18T11:06:37.417Z,97563.62
2022-09-18T11:09:25.047Z,97571.45
2022-09-18T11:11:53.027Z,97574.69
2022-09-18T11:14:26.235Z,97573.58
2022-09-18T11:16:59.424Z,97576.39
2022-09-18T11:19:34.261Z,97578.43
2022-09-18T11:22:26.702Z,97579.81
2022-09-18T11:25:15.994Z,97580.52
2022-09-18T11:27:48.765Z,97577.84
2022-09-18T11:30:46.954Z,97582.32
2022-09-18T11:33:41.976Z,97581.16
2022-09-18T11:36:13.043Z,97573.61
2022-09-18T11:38:43.472Z,97566.59
2022-09-18T11:41:37.677Z,97562.67
2022-09-18T11:44:18.882Z,97562.69
2022-09-18T11:47:10.257Z,97566.39
2022-09-18T11:50:02.755Z,97562.87
2022-09-18T11:52:52.995Z,97561.19
2022-09-18T11:55:37.384Z,97558.02
2022-09-18T11:58:15.718Z,97560.38
2022-09-18T12:00:48.362Z,97562.41
2022-09-18T12:03:27.801Z,97560.36
2022-09-18T12:06:01.596Z,97563.61
2022-09-18T12:08:31.459Z,97588.30
2022-09-18T12:11:14.141Z,97595.73
2022-09-18T12:13:57.009Z,97608.89
2022-09-18T12:16:38.905Z,97606.10
2022-09-18T12:19:10.637Z,97610.86
2022-09-18T12:22:08.860Z,97602.95
2022-09-18T12:24:36.043Z,97602.60
2022-09-18T12:27:27.846Z,97596.19
2022-09-18T12:30:06.719Z,97605.59
2022-09-18T12:32:35.512Z,97607.63
2022-09-18T12:35:18.123Z,97610.45
2022-09-18T12:38:14.001Z,97610.65
2022-09-18T12:41:13.250Z,97609.46
2022-09-18T12:44:11.493Z,97615.96
2022-09-18T12:46:56.158Z,97619.89
2022-09-18T12:49:42.756Z,97620.19
2022-09-18T12:52:27.678Z,97623.52
2022-09-18T12:55:10.547Z,97622.38
2022-09-18T12:57:56.817Z,97624.72
2022-09-18T13:00:24.178Z,97627.02
2022-09-18T13:02:56.299Z,97628.77
2022-09-18T13:05:44.831Z,97635.29
2022-09-18T13:08:19.725Z,97633.02
2022-09-18T13:10:49.518Z,97639.11
2022-09-18T13:13:32.913Z,97644.59
2022-09-18T13:16:07.917Z,97643.64
2022-09-18T13:18:39.202Z,97642.16
2022-09-18T13:21:18.101Z,97643.56
2022-09-18T13:23:46.559Z,97653.33
2022-09-18T13:26:15.639Z,97654.65
2022-09-18T13:28:43.921Z,97655.20
2022-09-18T13:31:28.519Z,97658.30
2022-09-18T13:34:00.179Z,97659.66
2022-09-18T13:36:36.901Z,97665.53
2022-09-18T13:39:15.990Z,97665.77
2022-09-18T13:41:46.423Z,97671.23
2022-09-18T13:44:19.707Z,97672.61
2022-09-18T13:46:48.889Z,97675.96
2022-09-18T13:49:19.750Z,97676.85
2022-09-18T13:51:46.605Z,97682.11
2022-09-18T13:54:19.971Z,97688.39
2022-09-18T13:57:04.050Z,97691.21
2022-09-18T13:59:46.932Z,97696.70
2022-09-18T14:02:32.859Z,97698.80
2022-09-18T14:05:18.044Z,97696.35
2022-09-18T14:07:52.158Z,97696.60
2022-09-18T14:10:23.839Z,97698.20
2022-09-18T14:13:03.637Z,97698.45
2022-09-18T14:15:31.700Z,97700.60
2022-09-18T14:18:15.397Z,97703.70
2022-09-18T14:20:54.365Z,97710.52
2022-09-18T14:23:36.995Z,97711.96
2022-09-18T14:26:37.373Z,97706.27
2022-09-18T14:29:10.235Z,97707.45
2022-09-18T14:31:55.556Z,97707.64
2022-09-18T14:34:40.760Z,97710.73
2022-09-18T14:37:24.842Z,97712.18
2022-09-18T14:39:54.977Z,97714.22
2022-09-18T14:42:32.603Z,97713.02
2022-09-18T14:45:14.716Z,97710.75
2022-09-18T14:47:58.845Z,97709.86
2022-09-18T14:50:27.677Z,97710.52
2022-09-18T14:52:55.609Z,97711.63
2022-09-18T14:55:29.248Z,97712.80
2022-09-18T14:58:02.367Z,97714.61
2022-09-18T15:00:32.717Z,97717.36
2022-09-18T15:03:04.469Z,97720.92
2022-09-18T15:05:33.046Z,97719.92
2022-09-18T15:08:04.049Z,97718.86
2022-09-18T15:10:33.543Z,97719.52
2022-09-18T15:13:05.587Z,97718.23
2022-09-18T15:15:35.230Z,97724.16
2022-09-18T15:18:03.386Z,97724.26
2022-09-18T15:20:32.454Z,97724.89
2022-09-18T15:23:19.422Z,97727.02
2022-09-18T15:25:51.035Z,97730.48
2022-09-18T15:28:19.844Z,97732.16
2022-09-18T15:30:48.797Z,97732.95
2022-09-18T15:33:33.607Z,97729.77
2022-09-18T15:36:02.588Z,97732.91
2022-09-18T15:38:41.702Z,97733.53
2022-09-18T15:41:28.720Z,97734.16
2022-09-18T15:43:55.531Z,97728.86
2022-09-18T15:46:28.321Z,97728.70
2022-09-18T15:49:12.358Z,97725.13
2022-09-18T15:51:40.476Z,97723.25
2022-09-18T15:54:09.428Z,97723.60
2022-09-18T15:56:39.785Z,97711.45
2022-09-18T15:59:16.725Z,97716.02
2022-09-18T16:01:46.999Z,97712.77
2022-09-18T16:04:33.167Z,97712.56
2022-09-18T16:07:05.066Z,97713.09
2022-09-18T16:09:36.568Z,97717.36
2022-09-18T16:12:25.593Z,97721.52
2022-09-18T16:15:16.719Z,97719.45
2022-09-18T16:17:45.087Z,97719.62
2022-09-18T16:20:30.092Z,97718.52
2022-09-18T16:23:05.153Z,97722.85
2022-09-18T16:25:36.197Z,97723.83
2022-09-18T16:28:13.760Z,97723.74
2022-09-18T16:30:42.510Z,97721.98
2022-09-18T16:33:23.255Z,97720.91
2022-09-18T16:35:57.125Z,97724.41
2022-09-18T16:38:23.993Z,97726.30
2022-09-18T16:40:50.748Z,97727.42
2022-09-18T16:43:18.065Z,97726.52
2022-09-18T16:45:44.800Z,97728.47
2022-09-18T16:48:11.712Z,97729.61
2022-09-18T16:50:38.994Z,97729.38
2022-09-18T16:53:08.345Z,97729.54
2022-09-18T16:55:40.128Z,97731.27
2022-09-18T16:58:08.008Z,97730.39
2022-09-18T17:00:37.855Z,97730.77
2022-09-18T17:03:07.165Z,97734.58
2022-09-18T17:05:34.824Z,97734.35
2022-09-18T17:08:04.057Z,97736.67
2022-09-18T17:10:32.269Z,97737.74
2022-09-18T17:12:59.038Z,97743.06
2022-09-18T17:15:25.799Z,97745.59
2022-09-18T17:17:53.366Z,97751.36
2022-09-18T17:20:20.608Z,97757.66
2022-09-18T17:22:48.055Z,97759.64
2022-09-18T17:25:15.454Z,97759.52
2022-09-18T17:27:43.889Z,97759.91
2022-09-18T17:30:12.061Z,97762.23
2022-09-18T17:32:38.927Z,97762.18
2022-09-18T17:35:07.910Z,97763.17
2022-09-18T17:37:52.231Z,97765.83
2022-09-18T17:40:19.575Z,97770.27
2022-09-18T17:42:46.353Z,97767.56
2022-09-18T17:45:13.255Z,97772.45
2022-09-18T17:47:40.084Z,97775.77
2022-09-18T17:50:07.593Z,97770.65
2022-09-18T17:52:36.174Z,97773.22
2022-09-18T17:55:04.018Z,97770.39
2022-09-18T17:57:32.172Z,97769.58
2022-09-18T17:59:59.020Z,97769.89
2022-09-18T18:02:26.117Z,97771.12
2022-09-18T18:04:53.083Z,97771.58
2022-09-18T18:07:20.063Z,97771.98
2022-09-18T18:09:46.874Z,97784.46
2022-09-18T18:12:14.405Z,97776.55
2022-09-18T18:14:41.813Z,97763.36
2022-09-18T18:17:09.121Z,97764.08
2022-09-18T18:19:35.963Z,97768.17
2022-09-18T18:22:02.700Z,97766.83
2022-09-18T18:24:31.156Z,97757.39
2022-09-18T18:27:14.688Z,97753.73
2022-09-18T18:29:42.628Z,97756.13
2022-09-18T18:32:11.232Z,97755.65
2022-09-18T18:34:39.398Z,97761.70
2022-09-18T18:37:06.992Z,97763.38
2022-09-18T18:39:33.890Z,97762.03
2022-09-18T18:42:00.764Z,97766.01
2022-09-18T18:44:27.734Z,97765.07
2022-09-18T18:46:54.634Z,97761.17
2022-09-18T18:49:21.583Z,97763.87
2022-09-18T18:51:48.974Z,97758.55
2022-09-18T18:54:18.060Z,97757.67
2022-09-18T18:56:45.147Z,97752.11
2022-09-18T18:59:17.463Z,97748.17
2022-09-18T19:01:44.919Z,97749.16
2022-09-18T19:04:13.952Z,97746.33
2022-09-18T19:06:43.854Z,97752.06
2022-09-18T19:09:17.004Z,97751.37
2022-09-18T19:11:49.734Z,97754.70
2022-09-18T19:14:19.569Z,97753.70
2022-09-18T19:16:48.061Z,97754.32
2022-09-18T19:19:32.114Z,97755.07
2022-09-18T19:22:17.832Z,97751.19
2022-09-18T19:24:44.807Z,97751.98
2022-09-18T19:27:11.863Z,97751.35
2022-09-18T19:29:54.788Z,97750.33
2022-09-18T19:32:22.176Z,97752.66
2022-09-18T19:35:04.407Z,97755.03
2022-09-18T19:37:31.158Z,97748.73
2022-09-18T19:39:57.949Z,97746.52
2022-09-18T19:42:28.366Z,97748.73
2022-09-18T19:45:01.696Z,97748.02
2022-09-18T19:47:48.835Z,97750.86
2022-09-18T19:50:23.241Z,97750.89
2022-09-18T19:53:06.305Z,97749.49
2022-09-18T19:55:33.509Z,97748.10
2022-09-18T19:58:01.587Z,97751.09
2022-09-18T20:00:28.419Z,97747.43
2022-09-18T20:02:58.861Z,97742.94
2022-09-18T20:05:26.989Z,97744.39
2022-09-18T20:08:10.317Z,97745.70
2022-09-18T20:10:39.871Z,97748.23
2022-09-18T20:13:07.923Z,97746.73
2022-09-18T20:16:07.154Z,97751.82
2022-09-18T20:18:34.399Z,97749.80
2022-09-18T20:21:08.241Z,97747.40
2022-09-18T20:23:36.120Z,97749.35
2022-09-18T20:26:08.015Z,97748.23
2022-09-18T20:28:36.366Z,97746.95
2022-09-18T20:31:05.713Z,97746.83
2022-09-18T20:33:32.870Z,97744.74
2022-09-18T20:36:00.641Z,97747.48
2022-09-18T20:38:32.091Z,97743.56
2022-09-18T20:41:03.680Z,97738.66
2022-09-18T20:43:33.222Z,97741.98
2022-09-18T20:46:02.504Z,97746.47
2022-09-18T20:48:34.045Z,97753.05
2022-09-18T20:51:06.859Z,97750.59
2022-09-18T20:53:34.616Z,97741.83
2022-09-18T20:56:04.796Z,97743.17
2022-09-18T20:58:34.120Z,97741.85
2022-09-18T21:01:13.559Z,97738.09
2022-09-18T21:03:43.166Z,97734.60
2022-09-18T21:06:22.444Z,97732.31
2022-09-18T21:08:53.774Z,97727.36
2022-09-18T21:11:26.519Z,97724.52
2022-09-18T21:13:56.873Z,97725.52
2022-09-18T21:16:26.393Z,97718.63
2022-09-18T21:18:56.815Z,97713.80
2022-09-18T21:21:25.379Z,97714.31
2022-09-18T21:23:53.442Z,97707.80
2022-09-18T21:26:21.314Z,97704.39
2022-09-18T21:28:52.085Z,97703.94
2022-09-18T21:31:19.653Z,97705.23
2022-09-18T21:33:47.207Z,97705.20
2022-09-18T21:36:14.187Z,97708.77
2022-09-18T21:38:42.226Z,97706.65
2022-09-18T21:41:09.719Z,97706.66
2022-09-18T21:43:38.596Z,97701.12
2022-09-18T21:46:07.229Z,97702.28
2022-09-18T21:48:35.321Z,97696.75
2022-09-18T21:51:04.088Z,97693.89
2022-09-18T21:53:32.047Z,97691.39
2022-09-18T21:56:04.380Z,97689.02
2022-09-18T21:58:31.349Z,97686.35
2022-09-18T22:00:58.436Z,97688.91
2022-09-18T22:03:25.295Z,97684.92
2022-09-18T22:05:53.115Z,97690.54
2022-09-18T22:08:19.954Z,97686.59
2022-09-18T22:10:46.689Z,97691.68
2022-09-18T22:13:13.573Z,97692.34
2022-09-18T22:15:40.294Z,97690.91
2022-09-18T22:18:07.036Z,97688.13
2022-09-18T22:20:36.650Z,97682.84
2022-09-18T22:23:03.507Z,97676.79
2022-09-18T22:25:31.105Z,97677.85
2022-09-18T22:27:57.951Z,97684.80
2022-09-18T22:30:24.867Z,97681.81
2022-09-18T22:32:51.601Z,97678.08
2022-09-18T22:35:18.636Z,97666.17
2022-09-18T22:37:45.378Z,97664.29
2022-09-18T22:40:12.131Z,97664.31
2022-09-18T22:42:38.952Z,97659.00
2022-09-18T22:45:06.217Z,97662.29
2022-09-18T22:47:32.960Z,97661.89
2022-09-18T22:49:59.673Z,97659.66
2022-09-18T22:52:26.391Z,97662.48
2022-09-18T22:54:53.227Z,97666.66
2022-09-18T22:57:19.924Z,97663.18
2022-09-18T22:59:46.671Z,97664.90
2022-09-18T23:02:13.471Z,97663.75
2022-09-18T23:04:40.980Z,97663.65
2022-09-18T23:07:07.855Z,97662.63
2022-09-18T23:09:34.619Z,97660.72
2022-09-18T23:12:02.147Z,97657.69
2022-09-18T23:14:31.297Z,97657.16
2022-09-18T23:16:59.664Z,97657.12
2022-09-18T23:19:29.235Z,97653.64
2022-09-18T23:21:56.485Z,97651.46
2022-09-18T23:24:24.813Z,97656.43
2022-09-18T23:26:53.639Z,97654.88
2022-09-18T23:29:23.392Z,97647.02
2022-09-18T23:31:53.185Z,97652.11
2022-09-18T23:34:22.579Z,97652.52
2022-09-18T23:36:52.014Z,97651.46
2022-09-18T23:39:22.674Z,97653.23
2022-09-18T23:41:50.332Z,97655.40
2022-09-18T23:44:19.049Z,97647.19
2022-09-18T23:46:46.942Z,97652.77
2022-09-18T23:49:15.296Z,97657.16
2022-09-18T23:51:46.339Z,97655.88
2022-09-18T23:54:16.916Z,97654.15
2022-09-18T23:56:44.867Z,97652.89
2022-09-18T23:59:12.757Z,97652.36
